sensor_id;sensor_type;location;lat;lon;timestamp;pressure;altitude;pressure_sealevel;temperature;humidity
7337;BME280;54510;42.016;23.098;2023-02-03T00:01:17;-21304.75;;;6.18;78.55
7337;BME280;54510;42.016;23.098;2023-02-03T00:03:42;-21298.59;;;5.96;79.17
7337;BME280;54510;42.016;23.098;2023-02-03T00:06:08;-21301.94;;;6.08;78.96
7337;BME280;54510;42.016;23.098;2023-02-03T00:08:34;-21301.69;;;6.07;79.00
7337;BME280;54510;42.016;23.098;2023-02-03T00:11:00;-21303.34;;;6.13;79.59
7337;BME280;54510;42.016;23.098;2023-02-03T00:13:26;-21301.41;;;6.06;79.76
7337;BME280;54510;42.016;23.098;2023-02-03T00:15:51;-21304.19;;;6.16;78.23
7337;BME280;54510;42.016;23.098;2023-02-03T00:18:17;-21304.59;;;6.18;77.90
7337;BME280;54510;42.016;23.098;2023-02-03T00:20:42;-21304.47;;;6.17;77.47
7337;BME280;54510;42.016;23.098;2023-02-03T00:23:09;-21301.94;;;6.08;77.69
7337;BME280;54510;42.016;23.098;2023-02-03T00:25:35;-21303.34;;;6.13;78.22
7337;BME280;54510;42.016;23.098;2023-02-03T00:28:01;-21302.38;;;6.10;77.51
7337;BME280;54510;42.016;23.098;2023-02-03T00:30:27;-21299.72;;;6.00;77.64
7337;BME280;54510;42.016;23.098;2023-02-03T00:32:52;-21293.72;;;5.78;79.00
7337;BME280;54510;42.016;23.098;2023-02-03T00:35:18;-21294.97;;;5.83;79.19
7337;BME280;54510;42.016;23.098;2023-02-03T00:37:49;-21299.03;;;5.98;78.54
7337;BME280;54510;42.016;23.098;2023-02-03T00:40:15;-21300.28;;;6.02;78.11
7337;BME280;54510;42.016;23.098;2023-02-03T00:42:40;-21300.69;;;6.04;78.90
7337;BME280;54510;42.016;23.098;2023-02-03T00:45:06;-21301.53;;;6.07;78.24
7337;BME280;54510;42.016;23.098;2023-02-03T00:47:31;-21300.28;;;6.02;79.03
7337;BME280;54510;42.016;23.098;2023-02-03T00:49:57;-21302.09;;;6.09;78.99
7337;BME280;54510;42.016;23.098;2023-02-03T00:52:22;-21301.41;;;6.06;78.74
7337;BME280;54510;42.016;23.098;2023-02-03T00:54:48;-21299.31;;;5.99;79.23
7337;BME280;54510;42.016;23.098;2023-02-03T00:57:13;-21296.78;;;5.89;79.35
7337;BME280;54510;42.016;23.098;2023-02-03T00:59:38;-21289.25;;;5.62;80.95
7337;BME280;54510;42.016;23.098;2023-02-03T01:02:04;-21288.13;;;5.58;81.04
7337;BME280;54510;42.016;23.098;2023-02-03T01:04:29;-21291.75;;;5.71;81.30
7337;BME280;54510;42.016;23.098;2023-02-03T01:06:55;-21293.84;;;5.79;81.40
7337;BME280;54510;42.016;23.098;2023-02-03T01:09:23;-21294.28;;;5.80;81.68
7337;BME280;54510;42.016;23.098;2023-02-03T01:11:48;-21296.38;;;5.88;81.09
7337;BME280;54510;42.016;23.098;2023-02-03T01:14:13;-21295.53;;;5.85;80.68
7337;BME280;54510;42.016;23.098;2023-02-03T01:16:39;-21295.09;;;5.83;80.56
7337;BME280;54510;42.016;23.098;2023-02-03T01:19:05;-21295.94;;;5.86;80.69
7337;BME280;54510;42.016;23.098;2023-02-03T01:21:31;-21298.31;;;5.95;80.75
7337;BME280;54510;42.016;23.098;2023-02-03T01:23:57;-21301.81;;;6.08;80.63
7337;BME280;54510;42.016;23.098;2023-02-03T01:26:23;-21295.25;;;5.84;80.66
7337;BME280;54510;42.016;23.098;2023-02-03T01:28:53;-21294.28;;;5.80;81.33
7337;BME280;54510;42.016;23.098;2023-02-03T01:31:21;-21294.28;;;5.80;80.95
7337;BME280;54510;42.016;23.098;2023-02-03T01:33:47;-21293.72;;;5.78;80.66
7337;BME280;54510;42.016;23.098;2023-02-03T01:36:16;-21293.72;;;5.78;80.72
7337;BME280;54510;42.016;23.098;2023-02-03T01:38:43;-21291.63;;;5.71;80.58
7337;BME280;54510;42.016;23.098;2023-02-03T01:41:11;-21292.75;;;5.75;80.09
7337;BME280;54510;42.016;23.098;2023-02-03T01:43:42;-21294.41;;;5.81;80.19
7337;BME280;54510;42.016;23.098;2023-02-03T01:46:35;-21292.03;;;5.72;80.21
7337;BME280;54510;42.016;23.098;2023-02-03T01:49:17;-21289.81;;;5.64;80.09
7337;BME280;54510;42.016;23.098;2023-02-03T01:51:44;-21289.53;;;5.63;79.20
7337;BME280;54510;42.016;23.098;2023-02-03T01:54:31;-21290.50;;;5.67;79.61
7337;BME280;54510;42.016;23.098;2023-02-03T01:57:09;-21291.06;;;5.69;79.40
7337;BME280;54510;42.016;23.098;2023-02-03T01:59:37;-21293.16;;;5.76;79.38
7337;BME280;54510;42.016;23.098;2023-02-03T02:02:03;-21292.59;;;5.74;79.37
7337;BME280;54510;42.016;23.098;2023-02-03T02:04:38;-21287.84;;;5.57;79.41
7337;BME280;54510;42.016;23.098;2023-02-03T02:07:08;-21280.44;;;5.30;80.19
7337;BME280;54510;42.016;23.098;2023-02-03T02:09:34;-21283.53;;;5.41;80.31
7337;BME280;54510;42.016;23.098;2023-02-03T02:12:00;-21280.31;;;5.30;79.98
7337;BME280;54510;42.016;23.098;2023-02-03T02:14:25;-21284.22;;;5.44;79.51
7337;BME280;54510;42.016;23.098;2023-02-03T02:16:58;-21280.03;;;5.29;79.74
7337;BME280;54510;42.016;23.098;2023-02-03T02:25:03;-21274.44;;;5.08;80.78
7337;BME280;54510;42.016;23.098;2023-02-03T02:33:38;-21265.22;;;4.75;83.12
7337;BME280;54510;42.016;23.098;2023-02-03T02:39:22;-21265.22;;;4.75;83.10
7337;BME280;54510;42.016;23.098;2023-02-03T02:42:50;-21265.50;;;4.76;82.02
7337;BME280;54510;42.016;23.098;2023-02-03T02:44:52;-21264.81;;;4.73;82.39
7337;BME280;54510;42.016;23.098;2023-02-03T02:47:21;-21269.84;;;4.92;82.39
7337;BME280;54510;42.016;23.098;2023-02-03T02:50:01;-21269.13;;;4.89;82.71
7337;BME280;54510;42.016;23.098;2023-02-03T02:52:31;-21269.13;;;4.89;82.14
7337;BME280;54510;42.016;23.098;2023-02-03T02:55:02;-21270.69;;;4.95;82.12
7337;BME280;54510;42.016;23.098;2023-02-03T02:57:30;-21270.13;;;4.93;82.18
7337;BME280;54510;42.016;23.098;2023-02-03T02:59:58;-21272.50;;;5.01;82.24
7337;BME280;54510;42.016;23.098;2023-02-03T03:02:34;-21270.81;;;4.95;82.07
7337;BME280;54510;42.016;23.098;2023-02-03T03:05:01;-21271.66;;;4.98;81.15
7337;BME280;54510;42.016;23.098;2023-02-03T03:07:31;-21269.84;;;4.92;81.98
7337;BME280;54510;42.016;23.098;2023-02-03T03:10:02;-21272.50;;;5.01;82.19
7337;BME280;54510;42.016;23.098;2023-02-03T03:12:37;-21274.88;;;5.10;82.11
7337;BME280;54510;42.016;23.098;2023-02-03T03:15:14;-21274.16;;;5.07;81.79
7337;BME280;54510;42.016;23.098;2023-02-03T03:17:50;-21276.25;;;5.15;81.32
7337;BME280;54510;42.016;23.098;2023-02-03T03:20:21;-21277.50;;;5.20;81.52
7337;BME280;54510;42.016;23.098;2023-02-03T03:22:55;-21275.00;;;5.10;81.03
7337;BME280;54510;42.016;23.098;2023-02-03T03:25:28;-21278.91;;;5.25;81.05
7337;BME280;54510;42.016;23.098;2023-02-03T03:28:02;-21278.63;;;5.24;81.47
7337;BME280;54510;42.016;23.098;2023-02-03T03:30:35;-21281.84;;;5.35;80.72
7337;BME280;54510;42.016;23.098;2023-02-03T03:33:02;-21279.19;;;5.26;80.41
7337;BME280;54510;42.016;23.098;2023-02-03T03:35:38;-21281.44;;;5.34;79.89
7337;BME280;54510;42.016;23.098;2023-02-03T03:38:12;-21282.69;;;5.38;80.44
7337;BME280;54510;42.016;23.098;2023-02-03T03:40:51;-21285.91;;;5.50;79.66
7337;BME280;54510;42.016;23.098;2023-02-03T03:43:22;-21287.00;;;5.54;79.85
7337;BME280;54510;42.016;23.098;2023-02-03T03:46:00;-21282.00;;;5.36;80.00
7337;BME280;54510;42.016;23.098;2023-02-03T03:51:11;-21276.81;;;5.17;80.10
7337;BME280;54510;42.016;23.098;2023-02-03T03:53:41;-21273.06;;;5.03;79.98
7337;BME280;54510;42.016;23.098;2023-02-03T03:56:11;-21270.94;;;4.96;79.64
7337;BME280;54510;42.016;23.098;2023-02-03T03:58:41;-21270.13;;;4.93;80.15
7337;BME280;54510;42.016;23.098;2023-02-03T04:01:10;-21269.28;;;4.90;80.03
7337;BME280;54510;42.016;23.098;2023-02-03T04:03:44;-21267.88;;;4.85;80.72
7337;BME280;54510;42.016;23.098;2023-02-03T04:06:11;-21271.50;;;4.98;80.85
7337;BME280;54510;42.016;23.098;2023-02-03T04:08:37;-21267.75;;;4.84;80.97
7337;BME280;54510;42.016;23.098;2023-02-03T04:11:04;-21269.41;;;4.90;80.79
7337;BME280;54510;42.016;23.098;2023-02-03T04:13:30;-21270.25;;;4.93;81.32
7337;BME280;54510;42.016;23.098;2023-02-03T04:15:56;-21270.41;;;4.94;81.04
7337;BME280;54510;42.016;23.098;2023-02-03T04:18:21;-21271.94;;;4.99;80.63
7337;BME280;54510;42.016;23.098;2023-02-03T04:20:47;-21270.53;;;4.94;80.41
7337;BME280;54510;42.016;23.098;2023-02-03T04:23:12;-21267.31;;;4.83;80.23
7337;BME280;54510;42.016;23.098;2023-02-03T04:25:37;-21260.19;;;4.57;82.24
7337;BME280;54510;42.016;23.098;2023-02-03T04:28:03;-21262.44;;;4.65;81.82
7337;BME280;54510;42.016;23.098;2023-02-03T04:30:30;-21262.16;;;4.64;81.74
7337;BME280;54510;42.016;23.098;2023-02-03T04:32:55;-21258.66;;;4.51;82.60
7337;BME280;54510;42.016;23.098;2023-02-03T04:35:21;-21259.91;;;4.56;82.79
7337;BME280;54510;42.016;23.098;2023-02-03T04:37:46;-21264.66;;;4.73;82.09
7337;BME280;54510;42.016;23.098;2023-02-03T04:40:12;-21260.59;;;4.58;82.05
7337;BME280;54510;42.016;23.098;2023-02-03T04:42:39;-21260.75;;;4.59;82.00
7337;BME280;54510;42.016;23.098;2023-02-03T04:45:06;-21259.06;;;4.53;81.86
7337;BME280;54510;42.016;23.098;2023-02-03T04:47:31;-21261.31;;;4.61;81.77
7337;BME280;54510;42.016;23.098;2023-02-03T04:49:57;-21263.56;;;4.69;81.48
7337;BME280;54510;42.016;23.098;2023-02-03T04:52:22;-21264.09;;;4.71;81.54
7337;BME280;54510;42.016;23.098;2023-02-03T04:54:48;-21265.50;;;4.76;81.50
7337;BME280;54510;42.016;23.098;2023-02-03T04:57:13;-21269.97;;;4.92;81.86
7337;BME280;54510;42.016;23.098;2023-02-03T04:59:39;-21262.16;;;4.64;81.33
7337;BME280;54510;42.016;23.098;2023-02-03T05:02:04;-21261.03;;;4.60;81.41
7337;BME280;54510;42.016;23.098;2023-02-03T05:04:30;-21261.88;;;4.63;81.13
7337;BME280;54510;42.016;23.098;2023-02-03T05:06:56;-21259.34;;;4.54;81.48
7337;BME280;54510;42.016;23.098;2023-02-03T05:09:22;-21262.72;;;4.66;80.76
7337;BME280;54510;42.016;23.098;2023-02-03T05:11:48;-21262.44;;;4.65;80.16
7337;BME280;54510;42.016;23.098;2023-02-03T05:14:13;-21262.44;;;4.65;80.14
7337;BME280;54510;42.016;23.098;2023-02-03T05:16:39;-21264.38;;;4.72;79.68
7337;BME280;54510;42.016;23.098;2023-02-03T05:19:04;-21263.00;;;4.67;79.86
7337;BME280;54510;42.016;23.098;2023-02-03T05:21:29;-21259.63;;;4.55;80.16
7337;BME280;54510;42.016;23.098;2023-02-03T05:23:55;-21262.16;;;4.64;80.57
7337;BME280;54510;42.016;23.098;2023-02-03T05:26:20;-21261.03;;;4.60;79.96
7337;BME280;54510;42.016;23.098;2023-02-03T05:28:46;-21257.69;;;4.48;80.42
7337;BME280;54510;42.016;23.098;2023-02-03T05:31:11;-21252.78;;;4.30;80.90
7337;BME280;54510;42.016;23.098;2023-02-03T05:33:37;-21252.09;;;4.27;80.74
7337;BME280;54510;42.016;23.098;2023-02-03T05:36:02;-21251.53;;;4.25;81.16
7337;BME280;54510;42.016;23.098;2023-02-03T05:38:28;-21254.75;;;4.37;80.78
7337;BME280;54510;42.016;23.098;2023-02-03T05:40:53;-21255.72;;;4.41;80.56
7337;BME280;54510;42.016;23.098;2023-02-03T05:43:37;-21253.75;;;4.33;81.14
7337;BME280;54510;42.016;23.098;2023-02-03T05:46:04;-21253.63;;;4.33;81.41
7337;BME280;54510;42.016;23.098;2023-02-03T05:48:30;-21252.50;;;4.29;81.22
7337;BME280;54510;42.016;23.098;2023-02-03T05:50:56;-21251.53;;;4.25;81.79
7337;BME280;54510;42.016;23.098;2023-02-03T05:53:21;-21251.25;;;4.24;81.59
7337;BME280;54510;42.016;23.098;2023-02-03T05:55:47;-21252.09;;;4.27;82.10
7337;BME280;54510;42.016;23.098;2023-02-03T05:58:12;-21248.44;;;4.14;81.60
7337;BME280;54510;42.016;23.098;2023-02-03T06:00:38;-21249.28;;;4.17;81.65
7337;BME280;54510;42.016;23.098;2023-02-03T06:03:03;-21248.16;;;4.13;81.97
7337;BME280;54510;42.016;23.098;2023-02-03T06:05:30;-21248.44;;;4.14;81.85
7337;BME280;54510;42.016;23.098;2023-02-03T06:07:57;-21245.66;;;4.04;81.78
7337;BME280;54510;42.016;23.098;2023-02-03T06:10:22;-21247.19;;;4.10;80.98
7337;BME280;54510;42.016;23.098;2023-02-03T06:12:48;-21246.78;;;4.08;80.96
7337;BME280;54510;42.016;23.098;2023-02-03T06:15:14;-21250.69;;;4.22;81.11
7337;BME280;54510;42.016;23.098;2023-02-03T06:17:43;-21250.00;;;4.20;80.58
7337;BME280;54510;42.016;23.098;2023-02-03T06:20:10;-21252.50;;;4.29;80.54
7337;BME280;54510;42.016;23.098;2023-02-03T06:22:36;-21255.31;;;4.39;79.81
7337;BME280;54510;42.016;23.098;2023-02-03T06:25:01;-21256.28;;;4.43;79.84
7337;BME280;54510;42.016;23.098;2023-02-03T06:27:27;-21257.97;;;4.49;79.87
7337;BME280;54510;42.016;23.098;2023-02-03T06:29:52;-21259.34;;;4.54;79.75
7337;BME280;54510;42.016;23.098;2023-02-03T06:32:18;-21255.84;;;4.41;79.77
7337;BME280;54510;42.016;23.098;2023-02-03T06:34:43;-21260.34;;;4.57;79.87
7337;BME280;54510;42.016;23.098;2023-02-03T06:37:09;-21262.84;;;4.66;79.29
7337;BME280;54510;42.016;23.098;2023-02-03T06:39:34;-21262.56;;;4.65;79.69
7337;BME280;54510;42.016;23.098;2023-02-03T06:42:00;-21259.63;;;4.55;80.25
7337;BME280;54510;42.016;23.098;2023-02-03T06:44:25;-21261.88;;;4.63;79.79
7337;BME280;54510;42.016;23.098;2023-02-03T06:46:51;-21261.59;;;4.62;79.38
7337;BME280;54510;42.016;23.098;2023-02-03T06:49:17;-21257.41;;;4.47;79.84
7337;BME280;54510;42.016;23.098;2023-02-03T06:51:43;-21259.91;;;4.56;80.47
7337;BME280;54510;42.016;23.098;2023-02-03T06:54:10;-21263.69;;;4.69;80.21
7337;BME280;54510;42.016;23.098;2023-02-03T06:56:36;-21264.94;;;4.74;79.87
7337;BME280;54510;42.016;23.098;2023-02-03T06:59:01;-21266.34;;;4.79;79.73
7337;BME280;54510;42.016;23.098;2023-02-03T07:01:27;-21262.44;;;4.65;80.04
7337;BME280;54510;42.016;23.098;2023-02-03T07:03:54;-21260.59;;;4.58;79.49
7337;BME280;54510;42.016;23.098;2023-02-03T07:06:22;-21263.69;;;4.69;79.34
7337;BME280;54510;42.016;23.098;2023-02-03T07:08:48;-21269.13;;;4.89;78.77
7337;BME280;54510;42.016;23.098;2023-02-03T07:11:13;-21274.44;;;5.08;78.28
7337;BME280;54510;42.016;23.098;2023-02-03T07:13:39;-21275.00;;;5.10;78.04
7337;BME280;54510;42.016;23.098;2023-02-03T07:16:05;-21279.91;;;5.28;77.68
7337;BME280;54510;42.016;23.098;2023-02-03T07:18:30;-21283.66;;;5.42;77.14
7337;BME280;54510;42.016;23.098;2023-02-03T07:20:56;-21284.66;;;5.45;77.54
7337;BME280;54510;42.016;23.098;2023-02-03T07:23:21;-21286.72;;;5.53;77.44
7337;BME280;54510;42.016;23.098;2023-02-03T07:25:47;-21280.44;;;5.30;76.97
7337;BME280;54510;42.016;23.098;2023-02-03T07:28:12;-21282.28;;;5.37;77.13
7337;BME280;54510;42.016;23.098;2023-02-03T07:30:38;-21282.13;;;5.36;76.64
7337;BME280;54510;42.016;23.098;2023-02-03T07:33:03;-21281.16;;;5.33;76.83
7337;BME280;54510;42.016;23.098;2023-02-03T07:35:28;-21279.06;;;5.25;76.62
7337;BME280;54510;42.016;23.098;2023-02-03T07:37:54;-21283.66;;;5.42;76.84
7337;BME280;54510;42.016;23.098;2023-02-03T07:40:19;-21288.69;;;5.60;75.92
7337;BME280;54510;42.016;23.098;2023-02-03T07:42:47;-21291.06;;;5.69;74.83
7337;BME280;54510;42.016;23.098;2023-02-03T07:45:14;-21294.13;;;5.80;74.18
7337;BME280;54510;42.016;23.098;2023-02-03T07:47:41;-21300.41;;;6.03;74.46
7337;BME280;54510;42.016;23.098;2023-02-03T07:50:08;-21303.75;;;6.15;73.75
7337;BME280;54510;42.016;23.098;2023-02-03T07:52:33;-21308.66;;;6.32;72.93
7337;BME280;54510;42.016;23.098;2023-02-03T07:54:59;-21309.91;;;6.37;73.18
7337;BME280;54510;42.016;23.098;2023-02-03T07:57:24;-21312.28;;;6.46;72.16
7337;BME280;54510;42.016;23.098;2023-02-03T07:59:49;-21312.41;;;6.46;71.82
7337;BME280;54510;42.016;23.098;2023-02-03T08:02:15;-21309.34;;;6.35;71.54
7337;BME280;54510;42.016;23.098;2023-02-03T08:04:40;-21303.06;;;6.12;71.68
7337;BME280;54510;42.016;23.098;2023-02-03T08:07:06;-21300.69;;;6.04;71.13
7337;BME280;54510;42.016;23.098;2023-02-03T08:09:31;-21307.13;;;6.27;71.10
7337;BME280;54510;42.016;23.098;2023-02-03T08:11:56;-21312.97;;;6.48;70.93
7337;BME280;54510;42.016;23.098;2023-02-03T08:14:22;-21316.59;;;6.61;70.60
7337;BME280;54510;42.016;23.098;2023-02-03T08:16:48;-21312.84;;;6.48;70.65
7337;BME280;54510;42.016;23.098;2023-02-03T08:19:13;-21312.84;;;6.48;70.42
7337;BME280;54510;42.016;23.098;2023-02-03T08:21:38;-21312.84;;;6.48;69.40
7337;BME280;54510;42.016;23.098;2023-02-03T08:24:04;-21313.13;;;6.49;67.41
7337;BME280;54510;42.016;23.098;2023-02-03T08:26:30;-21314.22;;;6.53;65.62
7337;BME280;54510;42.016;23.098;2023-02-03T08:28:55;-21310.31;;;6.39;62.18
7337;BME280;54510;42.016;23.098;2023-02-03T08:31:21;-21314.78;;;6.55;61.10
7337;BME280;54510;42.016;23.098;2023-02-03T08:33:46;-21317.84;;;6.66;60.34
7337;BME280;54510;42.016;23.098;2023-02-03T08:36:12;-21320.94;;;6.77;59.27
7337;BME280;54510;42.016;23.098;2023-02-03T08:38:38;-21320.22;;;6.74;58.31
7337;BME280;54510;42.016;23.098;2023-02-03T08:41:15;-21322.31;;;6.82;58.53
7337;BME280;54510;42.016;23.098;2023-02-03T08:43:42;-21321.19;;;6.78;58.18
7337;BME280;54510;42.016;23.098;2023-02-03T08:46:10;-21320.38;;;6.75;58.70
7337;BME280;54510;42.016;23.098;2023-02-03T08:48:36;-21319.13;;;6.70;58.83
7337;BME280;54510;42.016;23.098;2023-02-03T08:51:08;-21317.16;;;6.63;58.56
7337;BME280;54510;42.016;23.098;2023-02-03T08:53:33;-21317.84;;;6.66;58.81
7337;BME280;54510;42.016;23.098;2023-02-03T08:56:03;-21318.00;;;6.66;59.65
7337;BME280;54510;42.016;23.098;2023-02-03T08:58:29;-21318.28;;;6.67;58.73
7337;BME280;54510;42.016;23.098;2023-02-03T09:00:54;-21312.84;;;6.48;58.51
7337;BME280;54510;42.016;23.098;2023-02-03T09:03:19;-21315.47;;;6.57;57.81
7337;BME280;54510;42.016;23.098;2023-02-03T09:05:45;-21309.63;;;6.36;56.59
7337;BME280;54510;42.016;23.098;2023-02-03T09:08:10;-21309.75;;;6.37;55.88
7337;BME280;54510;42.016;23.098;2023-02-03T09:10:36;-21312.13;;;6.45;55.70
7337;BME280;54510;42.016;23.098;2023-02-03T09:13:01;-21317.31;;;6.64;56.17
7337;BME280;54510;42.016;23.098;2023-02-03T09:15:26;-21318.28;;;6.67;54.70
7337;BME280;54510;42.016;23.098;2023-02-03T09:17:52;-21318.28;;;6.67;54.68
7337;BME280;54510;42.016;23.098;2023-02-03T09:20:19;-21316.59;;;6.61;54.43
7337;BME280;54510;42.016;23.098;2023-02-03T09:22:45;-21317.84;;;6.66;53.97
7337;BME280;54510;42.016;23.098;2023-02-03T09:25:10;-21319.38;;;6.71;53.88
7337;BME280;54510;42.016;23.098;2023-02-03T09:27:35;-21318.97;;;6.70;53.60
7337;BME280;54510;42.016;23.098;2023-02-03T09:30:01;-21321.34;;;6.79;53.62
7337;BME280;54510;42.016;23.098;2023-02-03T09:32:26;-21319.94;;;6.73;53.95
7337;BME280;54510;42.016;23.098;2023-02-03T09:34:52;-21324.81;;;6.91;53.63
7337;BME280;54510;42.016;23.098;2023-02-03T09:37:17;-21321.19;;;6.78;52.68
7337;BME280;54510;42.016;23.098;2023-02-03T09:39:43;-21320.78;;;6.77;52.59
7337;BME280;54510;42.016;23.098;2023-02-03T09:42:31;-21326.91;;;6.99;52.78
7337;BME280;54510;42.016;23.098;2023-02-03T09:45:19;-21329.28;;;7.07;51.57
7337;BME280;54510;42.016;23.098;2023-02-03T09:47:47;-21324.13;;;6.89;49.95
7337;BME280;54510;42.016;23.098;2023-02-03T09:50:24;-21326.78;;;6.98;50.74
7337;BME280;54510;42.016;23.098;2023-02-03T09:52:51;-21328.72;;;7.05;51.16
7337;BME280;54510;42.016;23.098;2023-02-03T09:55:37;-21323.72;;;6.87;50.18
7337;BME280;54510;42.016;23.098;2023-02-03T09:58:07;-21331.09;;;7.14;50.47
7337;BME280;54510;42.016;23.098;2023-02-03T10:00:36;-21328.31;;;7.04;50.18
7337;BME280;54510;42.016;23.098;2023-02-03T10:03:06;-21323.44;;;6.86;50.25
7337;BME280;54510;42.016;23.098;2023-02-03T10:11:26;-21331.25;;;7.14;50.31
7337;BME280;54510;42.016;23.098;2023-02-03T10:14:34;-21335.97;;;7.32;49.74
7337;BME280;54510;42.016;23.098;2023-02-03T10:19:42;-21327.63;;;7.01;49.67
7337;BME280;54510;42.016;23.098;2023-02-03T10:22:13;-21326.91;;;6.99;49.20
7337;BME280;54510;42.016;23.098;2023-02-03T10:24:55;-21327.06;;;6.99;49.30
7337;BME280;54510;42.016;23.098;2023-02-03T10:27:24;-21335.00;;;7.28;49.67
7337;BME280;54510;42.016;23.098;2023-02-03T10:30:00;-21335.97;;;7.32;49.43
7337;BME280;54510;42.016;23.098;2023-02-03T10:32:28;-21334.44;;;7.26;48.84
7337;BME280;54510;42.016;23.098;2023-02-03T10:34:54;-21338.06;;;7.39;48.12
7337;BME280;54510;42.016;23.098;2023-02-03T10:37:30;-21342.94;;;7.57;48.26
7337;BME280;54510;42.016;23.098;2023-02-03T10:39:58;-21343.91;;;7.61;48.21
7337;BME280;54510;42.016;23.098;2023-02-03T10:42:27;-21347.13;;;7.72;48.98
7337;BME280;54510;42.016;23.098;2023-02-03T10:45:13;-21344.06;;;7.61;48.37
7337;BME280;54510;42.016;23.098;2023-02-03T10:47:42;-21341.41;;;7.51;48.74
7337;BME280;54510;42.016;23.098;2023-02-03T10:50:21;-21343.38;;;7.59;47.85
7337;BME280;54510;42.016;23.098;2023-02-03T10:52:47;-21341.69;;;7.52;48.06
7337;BME280;54510;42.016;23.098;2023-02-03T10:55:33;-21348.25;;;7.76;48.28
7337;BME280;54510;42.016;23.098;2023-02-03T10:58:16;-21346.72;;;7.71;48.75
7337;BME280;54510;42.016;23.098;2023-02-03T11:00:42;-21346.16;;;7.69;48.34
7337;BME280;54510;42.016;23.098;2023-02-03T11:03:21;-21348.94;;;7.79;47.55
7337;BME280;54510;42.016;23.098;2023-02-03T11:06:09;-21353.53;;;7.96;47.67
7337;BME280;54510;42.016;23.098;2023-02-03T11:08:37;-21350.59;;;7.85;47.34
7337;BME280;54510;42.016;23.098;2023-02-03T11:11:07;-21353.66;;;7.96;47.48
7337;BME280;54510;42.016;23.098;2023-02-03T11:13:33;-21358.41;;;8.13;47.72
7337;BME280;54510;42.016;23.098;2023-02-03T11:16:02;-21356.88;;;8.08;47.08
7337;BME280;54510;42.016;23.098;2023-02-03T11:21:05;-21360.06;;;8.19;47.11
7337;BME280;54510;42.016;23.098;2023-02-03T11:23:31;-21366.19;;;8.42;46.72
7337;BME280;54510;42.016;23.098;2023-02-03T11:25:57;-21366.06;;;8.41;46.28
7337;BME280;54510;42.016;23.098;2023-02-03T11:28:25;-21364.41;;;8.35;44.39
7337;BME280;54510;42.016;23.098;2023-02-03T11:30:56;-21377.19;;;8.82;44.90
7337;BME280;54510;42.016;23.098;2023-02-03T11:33:25;-21378.03;;;8.85;44.64
7337;BME280;54510;42.016;23.098;2023-02-03T11:35:56;-21378.72;;;8.87;43.64
7337;BME280;54510;42.016;23.098;2023-02-03T11:38:34;-21378.16;;;8.85;42.90
7337;BME280;54510;42.016;23.098;2023-02-03T11:41:04;-21381.09;;;8.96;43.83
7337;BME280;54510;42.016;23.098;2023-02-03T11:43:30;-21390.25;;;9.29;44.02
7337;BME280;54510;42.016;23.098;2023-02-03T11:46:01;-21396.66;;;9.52;43.19
7337;BME280;54510;42.016;23.098;2023-02-03T11:48:31;-21388.03;;;9.21;43.59
7337;BME280;54510;42.016;23.098;2023-02-03T11:56:56;-21381.09;;;8.96;44.81
7337;BME280;54510;42.016;23.098;2023-02-03T12:05:03;-21386.78;;;9.17;44.90
7337;BME280;54510;42.016;23.098;2023-02-03T12:10:37;-21385.53;;;9.12;42.12
7337;BME280;54510;42.016;23.098;2023-02-03T12:19:04;-21389.00;;;9.25;40.67
7337;BME280;54510;42.016;23.098;2023-02-03T12:24:26;-21389.56;;;9.27;41.45
7337;BME280;54510;42.016;23.098;2023-02-03T12:30:13;-21389.56;;;9.27;40.25
7337;BME280;54510;42.016;23.098;2023-02-03T12:32:47;-21373.16;;;8.67;41.44
7337;BME280;54510;42.016;23.098;2023-02-03T12:35:25;-21374.28;;;8.71;41.37
7337;BME280;54510;42.016;23.098;2023-02-03T12:38:04;-21373.72;;;8.69;41.81
7337;BME280;54510;42.016;23.098;2023-02-03T12:41:05;-21375.38;;;8.75;40.77
7337;BME280;54510;42.016;23.098;2023-02-03T12:43:45;-21382.19;;;9.00;39.91
7337;BME280;54510;42.016;23.098;2023-02-03T12:46:30;-21379.69;;;8.91;40.16
7337;BME280;54510;42.016;23.098;2023-02-03T12:48:58;-21374.28;;;8.71;40.21
7337;BME280;54510;42.016;23.098;2023-02-03T12:51:39;-21373.16;;;8.67;39.62
7337;BME280;54510;42.016;23.098;2023-02-03T12:56:45;-21371.78;;;8.62;39.86
7337;BME280;54510;42.016;23.098;2023-02-03T12:59:18;-21374.28;;;8.71;39.27
7337;BME280;54510;42.016;23.098;2023-02-03T13:02:14;-21371.06;;;8.59;39.76
7337;BME280;54510;42.016;23.098;2023-02-03T13:04:50;-21379.13;;;8.89;38.90
7337;BME280;54510;42.016;23.098;2023-02-03T13:07:26;-21385.41;;;9.11;39.09
7337;BME280;54510;42.016;23.098;2023-02-03T13:10:13;-21391.53;;;9.34;38.62
7337;BME280;54510;42.016;23.098;2023-02-03T13:12:49;-21383.19;;;9.03;38.67
7337;BME280;54510;42.016;23.098;2023-02-03T13:15:36;-21381.09;;;8.96;38.80
7337;BME280;54510;42.016;23.098;2023-02-03T13:18:09;-21385.81;;;9.13;39.23
7337;BME280;54510;42.016;23.098;2023-02-03T13:20:39;-21384.28;;;9.07;39.83
7337;BME280;54510;42.016;23.098;2023-02-03T13:23:07;-21399.72;;;9.64;39.08
7337;BME280;54510;42.016;23.098;2023-02-03T13:36:46;-21407.63;;;9.93;36.68
7337;BME280;54510;42.016;23.098;2023-02-03T13:44:14;-21416.41;;;10.24;36.60
7337;BME280;54510;42.016;23.098;2023-02-03T13:46:41;-21420.13;;;10.38;37.04
7337;BME280;54510;42.016;23.098;2023-02-03T13:49:07;-21410.00;;;10.01;36.79
7337;BME280;54510;42.016;23.098;2023-02-03T13:51:43;-21394.84;;;9.46;36.26
7337;BME280;54510;42.016;23.098;2023-02-03T13:54:16;-21395.28;;;9.47;36.79
7337;BME280;54510;42.016;23.098;2023-02-03T13:57:18;-21389.97;;;9.28;37.17
7337;BME280;54510;42.016;23.098;2023-02-03T13:59:45;-21395.53;;;9.48;37.17
7337;BME280;54510;42.016;23.098;2023-02-03T14:10:06;-21386.66;;;9.16;36.65
7337;BME280;54510;42.016;23.098;2023-02-03T14:15:42;-21397.78;;;9.57;36.81
7337;BME280;54510;42.016;23.098;2023-02-03T14:18:31;-21394.56;;;9.45;37.56
7337;BME280;54510;42.016;23.098;2023-02-03T14:21:09;-21390.13;;;9.29;37.63
7337;BME280;54510;42.016;23.098;2023-02-03T14:23:43;-21385.97;;;9.14;38.09
7337;BME280;54510;42.016;23.098;2023-02-03T14:26:19;-21392.06;;;9.36;37.56
7337;BME280;54510;42.016;23.098;2023-02-03T14:28:47;-21383.72;;;9.05;38.39
7337;BME280;54510;42.016;23.098;2023-02-03T14:31:20;-21388.75;;;9.24;38.75
7337;BME280;54510;42.016;23.098;2023-02-03T14:34:05;-21393.19;;;9.40;38.68
7337;BME280;54510;42.016;23.098;2023-02-03T14:36:45;-21387.22;;;9.18;38.31